Time;durP1;ratioP1;P1;durP2;ratioP2;P2;SDS_P1;SDS_P2;PMS_P1;PMS_P2;Temp;Humidity;BMP_temperature;BMP_pressure;BME280_temperature;BME280_humidity;BME280_pressure;Samples;Min_cycle;Max_cycle;Signal;HPM_P1;HPM_P2
2023/02/22 00:01:34;;;;;;;20.92;9.27;;;;;;;-2.77;69.53;97324.72;4972829;28;20101;-76
2023/02/22 00:04:05;;;;;;;14.38;8.93;;;;;;;-2.87;69.77;97330.56;4940619;29;20043;-77
2023/02/22 00:06:32;;;;;;;14.45;8.63;;;;;;;-2.87;69.86;97336.63;4972723;28;20102;-76
2023/02/22 00:08:58;;;;;;;14.20;9.15;;;;;;;-2.73;69.77;97328.81;4972567;28;20066;-76
2023/02/22 00:11:25;;;;;;;20.13;9.60;;;;;;;-2.66;69.83;97328.47;4972499;28;20546;-76
2023/02/22 00:13:51;;;;;;;14.55;8.88;;;;;;;-2.64;69.36;97316.97;4972481;28;20504;-75
2023/02/22 00:16:19;;;;;;;16.52;9.48;;;;;;;-2.64;69.58;97322.19;4972894;28;20039;-75
2023/02/22 00:18:45;;;;;;;15.33;9.77;;;;;;;-2.60;69.61;97309.78;4972321;28;20101;-77
2023/02/22 00:21:14;;;;;;;17.45;8.98;;;;;;;-2.56;69.50;97313.91;4972402;28;20068;-76
2023/02/22 00:23:45;;;;;;;15.43;8.65;;;;;;;-2.50;69.29;97316.16;4957476;28;20082;-75
2023/02/22 00:26:17;;;;;;;18.63;8.52;;;;;;;-2.45;69.44;97319.31;4940755;29;20047;-76
2023/02/22 00:28:51;;;;;;;16.00;8.02;;;;;;;-2.60;69.33;97315.00;4972759;28;20043;-75
2023/02/22 00:31:18;;;;;;;14.60;8.70;;;;;;;-2.56;69.54;97319.97;4957403;28;20047;-77
2023/02/22 00:33:44;;;;;;;15.60;9.18;;;;;;;-2.56;69.33;97309.50;4956112;28;20066;-76
2023/02/22 00:36:12;;;;;;;17.35;9.88;;;;;;;-2.53;69.21;97305.88;4956069;28;20046;-75
2023/02/22 00:38:38;;;;;;;12.60;8.82;;;;;;;-2.55;69.48;97310.38;4939885;28;20487;-76
2023/02/22 00:41:05;;;;;;;18.70;10.30;;;;;;;-2.50;69.73;97305.69;4972102;28;20046;-76
2023/02/22 00:43:32;;;;;;;26.73;11.80;;;;;;;-2.55;69.20;97299.91;4971013;28;20518;-75
2023/02/22 00:45:58;;;;;;;26.30;11.38;;;;;;;-2.53;69.14;97314.56;4972212;28;20047;-77
2023/02/22 00:48:24;;;;;;;17.60;10.73;;;;;;;-2.48;69.25;97307.28;4956983;28;20055;-76
2023/02/22 00:50:54;;;;;;;19.25;10.77;;;;;;;-2.51;69.88;97311.88;4971808;28;20043;-77
2023/02/22 00:53:21;;;;;;;21.00;11.73;;;;;;;-2.48;69.92;97314.31;4971761;28;20097;-76
2023/02/22 00:55:47;;;;;;;18.00;10.88;;;;;;;-2.45;69.65;97308.88;4955980;28;20101;-77
2023/02/22 00:58:13;;;;;;;15.30;9.88;;;;;;;-2.39;69.92;97300.66;4955824;28;20043;-77
2023/02/22 01:00:41;;;;;;;16.95;9.00;;;;;;;-2.39;69.71;97291.97;4952180;28;20056;-76
2023/02/22 01:03:10;;;;;;;14.57;8.57;;;;;;;-2.35;69.54;97291.69;4952253;29;20067;-76
2023/02/22 01:05:37;;;;;;;14.80;8.70;;;;;;;-2.27;69.40;97299.91;4936094;29;20035;-75
2023/02/22 01:08:05;;;;;;;13.95;8.70;;;;;;;-2.27;69.01;97302.53;4952193;28;20507;-76
2023/02/22 01:10:33;;;;;;;16.52;8.88;;;;;;;-2.22;68.82;97302.22;4951934;28;20047;-76
2023/02/22 01:13:03;;;;;;;12.85;8.25;;;;;;;-2.27;68.60;97293.84;4920279;29;20054;-76
2023/02/22 01:15:30;;;;;;;12.35;8.15;;;;;;;-2.26;68.84;97282.41;4952118;28;20518;-77
2023/02/22 01:17:58;;;;;;;14.93;8.93;;;;;;;-2.23;68.53;97284.84;4937180;29;20063;-77
2023/02/22 01:20:25;;;;;;;14.27;9.00;;;;;;;-2.26;68.51;97295.50;4936012;28;20055;-76
2023/02/22 01:22:53;;;;;;;15.90;9.32;;;;;;;-2.28;68.72;97287.75;4937075;29;20051;-76
2023/02/22 01:25:22;;;;;;;14.63;9.40;;;;;;;-2.23;68.81;97296.16;4951886;28;20047;-75
2023/02/22 01:27:49;;;;;;;19.08;9.52;;;;;;;-2.34;68.80;97288.13;4951766;29;20047;-78
2023/02/22 01:30:20;;;;;;;17.77;9.70;;;;;;;-2.36;68.92;97290.00;4937040;29;20555;-76
2023/02/22 01:32:46;;;;;;;17.00;9.27;;;;;;;-2.29;68.97;97278.25;4935732;29;20043;-75
2023/02/22 01:35:17;;;;;;;16.48;9.95;;;;;;;-2.31;69.09;97277.47;4936913;29;20547;-76
2023/02/22 01:37:44;;;;;;;14.60;9.63;;;;;;;-2.42;69.16;97279.91;4936915;29;20051;-75
2023/02/22 01:40:21;;;;;;;19.80;11.02;;;;;;;-2.43;69.07;97285.25;4951664;29;20043;-75
2023/02/22 01:42:51;;;;;;;19.83;10.95;;;;;;;-2.43;69.14;97283.47;4935612;29;20075;-76
2023/02/22 01:45:29;;;;;;;25.55;12.00;;;;;;;-2.55;69.50;97273.75;4935900;28;20040;-77
2023/02/22 01:48:05;;;;;;;19.65;12.30;;;;;;;-2.41;69.28;97286.81;4951480;28;20110;-77
2023/02/22 01:50:38;;;;;;;25.88;13.77;;;;;;;-2.40;69.04;97278.06;4935804;28;20460;-76
2023/02/22 01:53:08;;;;;;;26.30;13.43;;;;;;;-2.54;68.97;97271.03;4936681;29;20566;-77
2023/02/22 01:55:35;;;;;;;22.35;12.73;;;;;;;-2.58;69.60;97287.00;4951166;28;20047;-78
2023/02/22 01:58:03;;;;;;;23.00;12.18;;;;;;;-2.68;69.68;97289.31;4951231;29;20040;-77
2023/02/22 02:00:29;;;;;;;25.33;12.10;;;;;;;-2.63;69.42;97286.41;4961791;28;20084;-76
2023/02/22 02:03:02;;;;;;;25.30;12.23;;;;;;;-2.52;70.00;97278.78;4990199;28;20047;-77
2023/02/22 02:05:30;;;;;;;20.75;10.82;;;;;;;-2.45;69.34;97280.94;4941554;28;20490;-77
2023/02/22 02:07:58;;;;;;;19.75;10.77;;;;;;;-2.51;68.94;97280.47;4989561;28;20138;-77
2023/02/22 02:10:24;;;;;;;20.05;11.32;;;;;;;-2.51;69.02;97280.47;4990078;28;20047;-77
2023/02/22 02:12:52;;;;;;;23.98;10.70;;;;;;;-2.52;69.12;97281.38;4957662;28;20051;-75
2023/02/22 02:15:32;;;;;;;19.42;11.10;;;;;;;-2.47;69.46;97272.34;4973871;28;20129;-77
2023/02/22 02:18:01;;;;;;;20.88;9.88;;;;;;;-2.43;69.14;97273.00;4973567;28;20101;-77
2023/02/22 02:20:39;;;;;;;21.58;10.85;;;;;;;-2.48;68.99;97264.59;4974412;28;20038;-77
2023/02/22 02:23:24;;;;;;;18.80;11.40;;;;;;;-2.46;68.99;97265.34;4957833;28;20051;-75
2023/02/22 02:26:19;;;;;;;23.35;10.88;;;;;;;-2.50;69.30;97267.28;4957238;28;20490;-77
2023/02/22 02:29:08;;;;;;;18.55;10.32;;;;;;;-2.60;69.32;97270.56;4940891;28;20045;-77
2023/02/22 02:31:56;;;;;;;18.58;10.00;;;;;;;-2.55;69.58;97269.34;4983743;28;20065;-76
2023/02/22 02:34:41;;;;;;;17.38;9.50;;;;;;;-2.47;69.45;97261.03;4973050;28;20055;-77
2023/02/22 02:37:58;;;;;;;17.02;8.98;;;;;;;-2.41;69.21;97255.41;4988877;28;20050;-77
2023/02/22 02:40:55;;;;;;;14.23;7.97;;;;;;;-2.42;68.72;97253.75;4961503;28;20047;-77
2023/02/22 02:43:50;;;;;;;17.00;8.65;;;;;;;-2.47;68.76;97250.56;4939684;28;20154;-77
2023/02/22 02:46:31;;;;;;;13.52;7.35;;;;;;;-2.57;68.95;97244.22;4973329;28;20042;-77
2023/02/22 02:49:02;;;;;;;14.38;7.88;;;;;;;-2.54;69.35;97249.28;4956816;28;20050;-77
2023/02/22 02:51:35;;;;;;;13.18;8.23;;;;;;;-2.55;69.02;97247.59;4972850;28;20471;-77
2023/02/22 02:54:03;;;;;;;14.02;8.13;;;;;;;-2.66;69.09;97223.88;4989328;28;20512;-77
2023/02/22 02:56:29;;;;;;;11.60;7.35;;;;;;;-2.57;69.32;97239.81;4940754;28;20502;-78
2023/02/22 02:58:55;;;;;;;12.63;7.20;;;;;;;-2.63;69.10;97244.56;4957021;28;20145;-76
2023/02/22 03:01:48;;;;;;;11.10;7.10;;;;;;;-2.70;69.03;97236.28;4953377;28;20058;-77
2023/02/22 03:04:29;;;;;;;12.07;6.55;;;;;;;-2.65;68.94;97236.00;4954620;28;20503;-77
2023/02/22 03:07:01;;;;;;;12.20;6.60;;;;;;;-2.65;69.36;97243.84;4954308;28;20047;-77
2023/02/22 03:09:34;;;;;;;8.90;5.20;;;;;;;-2.66;69.18;97240.41;4940591;29;20039;-75
2023/02/22 03:12:24;;;;;;;8.00;4.72;;;;;;;-2.72;69.10;97246.81;4973262;28;20098;-77
2023/02/22 03:15:00;;;;;;;7.13;4.18;;;;;;;-2.81;69.53;97247.38;4940991;28;20073;-76
2023/02/22 03:17:47;;;;;;;8.63;4.47;;;;;;;-2.86;69.57;97238.13;4941828;29;20410;-77
2023/02/22 03:20:39;;;;;;;6.88;4.38;;;;;;;-2.79;69.49;97242.88;4957361;29;20188;-77
2023/02/22 03:23:20;;;;;;;6.30;4.18;;;;;;;-2.83;69.60;97223.09;4925523;28;20035;-77
2023/02/22 03:25:54;;;;;;;6.03;4.18;;;;;;;-2.98;69.43;97227.47;4957323;28;20051;-78
2023/02/22 03:28:25;;;;;;;5.78;4.05;;;;;;;-2.98;69.70;97231.84;4941270;29;20039;-76
2023/02/22 03:30:54;;;;;;;5.28;3.85;;;;;;;-2.82;69.65;97224.78;4941580;29;20526;-78
2023/02/22 03:33:38;;;;;;;4.15;3.47;;;;;;;-2.70;69.51;97229.28;4958643;28;20047;-78
2023/02/22 03:36:27;;;;;;;8.50;4.10;;;;;;;-2.59;69.14;97230.41;4941386;29;20566;-78
2023/02/22 03:38:56;;;;;;;6.97;3.80;;;;;;;-2.57;69.20;97229.34;4957278;28;20134;-76
2023/02/22 03:41:25;;;;;;;5.43;3.70;;;;;;;-2.76;68.73;97224.41;4925184;29;20102;-79
2023/02/22 03:44:02;;;;;;;4.75;3.80;;;;;;;-2.81;68.80;97229.09;4940555;28;20039;-79
2023/02/22 03:46:28;;;;;;;5.18;3.50;;;;;;;-2.66;68.73;97221.25;4940812;29;20435;-76
2023/02/22 03:49:11;;;;;;;3.33;3.00;;;;;;;-2.74;68.35;97222.56;4956474;28;20055;-79
2023/02/22 03:51:40;;;;;;;7.28;3.35;;;;;;;-2.67;68.63;97230.00;4941046;29;20065;-81
2023/02/22 03:54:06;;;;;;;6.15;3.63;;;;;;;-2.65;68.49;97221.16;4956738;28;20130;-78
2023/02/22 03:56:46;;;;;;;7.72;3.60;;;;;;;-2.55;68.17;97217.03;4957109;28;20043;-79
2023/02/22 03:59:13;;;;;;;5.38;3.42;;;;;;;-2.48;69.56;97218.34;4956966;28;20090;-80
2023/02/22 04:01:39;;;;;;;4.25;3.53;;;;;;;-2.33;68.62;97221.78;4970823;28;20059;-78
2023/02/22 04:04:05;;;;;;;5.50;3.33;;;;;;;-2.32;67.88;97223.47;4957713;28;20570;-76
2023/02/22 04:06:32;;;;;;;7.25;3.75;;;;;;;-2.24;67.74;97228.22;4956788;28;20053;-78
2023/02/22 04:08:59;;;;;;;5.95;4.00;;;;;;;-2.24;67.62;97209.91;4956058;28;20051;-77
2023/02/22 04:11:26;;;;;;;4.50;3.40;;;;;;;-2.12;67.65;97227.44;4940282;29;20094;-78
2023/02/22 04:13:53;;;;;;;5.05;3.70;;;;;;;-2.01;67.54;97224.16;4924858;29;20039;-77
2023/02/22 04:16:19;;;;;;;5.97;4.30;;;;;;;-1.89;67.11;97226.00;4956591;28;20043;-79
2023/02/22 04:18:45;;;;;;;5.15;3.50;;;;;;;-1.99;67.05;97227.53;4972807;28;20058;-78
2023/02/22 04:21:13;;;;;;;6.78;4.05;;;;;;;-2.05;66.63;97220.06;4942795;29;20047;-79
2023/02/22 04:23:42;;;;;;;6.95;4.05;;;;;;;-2.13;66.96;97214.47;4941807;28;20047;-78
2023/02/22 04:26:11;;;;;;;5.47;4.20;;;;;;;-2.07;67.19;97214.06;4940405;29;20047;-77
2023/02/22 04:28:37;;;;;;;4.95;3.60;;;;;;;-1.88;67.33;97214.59;4940465;29;20042;-78
2023/02/22 04:31:12;;;;;;;4.90;3.88;;;;;;;-1.63;66.93;97210.38;4943598;29;20101;-82
2023/02/22 04:33:39;;;;;;;6.18;3.88;;;;;;;-1.45;66.68;97203.94;4924343;29;20055;-79
2023/02/22 04:36:06;;;;;;;5.65;3.67;;;;;;;-1.34;66.13;97201.47;4940303;29;20495;-79
2023/02/22 04:38:34;;;;;;;8.07;3.85;;;;;;;-1.39;66.02;97190.47;4940166;29;20070;-77
2023/02/22 04:41:00;;;;;;;7.45;4.05;;;;;;;-1.34;65.34;97192.75;4956266;29;20050;-79
2023/02/22 04:43:26;;;;;;;15.70;5.00;;;;;;;-1.29;65.73;97182.81;4955975;28;20144;-78
2023/02/22 04:45:58;;;;;;;11.88;4.20;;;;;;;-1.16;64.73;97182.84;4955080;28;20565;-75
2023/02/22 04:48:24;;;;;;;7.45;4.07;;;;;;;-1.12;64.85;97176.44;4954659;28;20053;-77
2023/02/22 04:50:51;;;;;;;13.85;5.75;;;;;;;-0.98;64.77;97187.69;4971381;28;20498;-79
2023/02/22 04:53:17;;;;;;;6.70;4.32;;;;;;;-0.98;64.48;97176.31;4939446;29;20576;-77
2023/02/22 04:55:43;;;;;;;8.18;6.55;;;;;;;-0.83;64.57;97174.44;4955211;28;20146;-80
2023/02/22 04:58:10;;;;;;;6.40;4.07;;;;;;;-0.62;64.47;97172.97;4926915;29;20048;-79
2023/02/22 05:00:36;;;;;;;10.95;4.65;;;;;;;-0.46;64.17;97167.47;4970652;28;20090;-76
2023/02/22 05:03:02;;;;;;;49.70;8.82;;;;;;;-0.55;63.46;97160.25;4977647;28;20043;-78
2023/02/22 05:05:28;;;;;;;8.52;4.95;;;;;;;-0.40;63.71;97163.59;4971222;28;20051;-79
2023/02/22 05:07:54;;;;;;;6.10;4.72;;;;;;;-0.48;63.30;97153.66;4971198;28;20506;-79
2023/02/22 05:10:20;;;;;;;11.68;5.60;;;;;;;-0.52;63.28;97152.19;4971518;28;20118;-78
2023/02/22 05:12:46;;;;;;;11.38;4.97;;;;;;;-0.44;63.71;97152.47;4970767;28;20035;-76
2023/02/22 05:15:17;;;;;;;10.75;5.68;;;;;;;-0.29;63.54;97153.19;4956013;28;20497;-78
2023/02/22 05:17:46;;;;;;;11.27;5.43;;;;;;;-0.26;62.99;97153.81;4965605;28;20518;-77
2023/02/22 05:20:27;;;;;;;37.43;10.70;;;;;;;-0.43;63.10;97146.28;4975387;28;20043;-78
2023/02/22 05:22:57;;;;;;;15.93;5.22;;;;;;;-0.33;63.45;97144.69;4973808;28;20811;-78
2023/02/22 05:25:24;;;;;;;8.70;5.00;;;;;;;-0.03;63.31;97138.19;4990288;28;20406;-78
2023/02/22 05:27:58;;;;;;;10.20;5.20;;;;;;;0.30;63.18;97139.28;4990145;28;20545;-80
2023/02/22 05:30:29;;;;;;;8.30;5.25;;;;;;;0.44;62.13;97136.47;4974735;28;20101;-80
2023/02/22 05:32:55;;;;;;;11.70;5.78;;;;;;;0.51;62.07;97132.44;4941896;28;20043;-77
2023/02/22 05:35:22;;;;;;;11.07;5.28;;;;;;;0.72;61.40;97136.09;4954503;28;20143;-76
2023/02/22 05:37:49;;;;;;;6.90;5.18;;;;;;;0.83;61.19;97121.25;4954430;28;20101;-76
2023/02/22 05:40:21;;;;;;;6.55;4.72;;;;;;;0.99;60.90;97137.56;4954621;28;20047;-79
2023/02/22 05:42:48;;;;;;;8.07;4.82;;;;;;;1.13;61.25;97124.19;4954020;29;20051;-77
2023/02/22 05:45:16;;;;;;;7.15;4.95;;;;;;;1.16;60.27;97126.56;4955788;29;20042;-78
2023/02/22 05:47:42;;;;;;;9.48;5.18;;;;;;;1.25;59.93;97116.31;4954318;29;20121;-77
2023/02/22 05:50:08;;;;;;;11.55;5.20;;;;;;;1.23;59.58;97107.69;4954358;29;20133;-78
2023/02/22 05:52:35;;;;;;;5.40;4.82;;;;;;;1.40;59.87;97104.59;4953997;28;20530;-78
2023/02/22 05:55:01;;;;;;;5.88;4.38;;;;;;;1.56;59.63;97107.66;4954061;28;20185;-78
2023/02/22 05:57:27;;;;;;;5.85;4.47;;;;;;;1.72;59.39;97102.00;4970333;28;20125;-77
2023/02/22 05:59:52;;;;;;;6.57;4.82;;;;;;;1.82;58.42;97096.84;4973425;28;20146;-76
2023/02/22 06:02:18;;;;;;;8.30;5.53;;;;;;;1.91;58.54;97093.47;4956816;28;20578;-78
2023/02/22 06:04:45;;;;;;;9.63;5.32;;;;;;;2.03;57.97;97097.75;4976934;28;20050;-78
2023/02/22 06:07:12;;;;;;;7.40;5.35;;;;;;;2.10;57.97;97098.06;4980715;28;20045;-79
2023/02/22 06:09:38;;;;;;;6.78;5.10;;;;;;;2.08;58.34;97086.84;4957998;28;20050;-79
2023/02/22 06:12:04;;;;;;;6.32;4.60;;;;;;;2.15;57.88;97088.00;4991280;28;20041;-78
2023/02/22 06:14:30;;;;;;;7.45;5.18;;;;;;;2.27;57.53;97083.53;4976200;28;20124;-79
2023/02/22 06:16:57;;;;;;;6.50;4.85;;;;;;;2.23;57.19;97077.69;4993363;28;20034;-78
2023/02/22 06:19:23;;;;;;;7.38;5.22;;;;;;;2.41;56.98;97070.88;4975854;28;20038;-78
2023/02/22 06:21:53;;;;;;;11.88;5.38;;;;;;;2.01;56.53;97068.06;4992873;28;20143;-79
2023/02/22 06:24:20;;;;;;;6.97;5.13;;;;;;;2.03;58.11;97066.16;4992801;28;20074;-77
2023/02/22 06:26:46;;;;;;;6.95;5.20;;;;;;;2.30;57.08;97070.09;4993438;28;20128;-78
2023/02/22 06:29:12;;;;;;;7.68;5.28;;;;;;;2.38;57.14;97054.47;4976462;28;20406;-78
2023/02/22 06:31:38;;;;;;;6.82;5.25;;;;;;;2.08;58.14;97052.59;4993534;28;20038;-80
2023/02/22 06:34:04;;;;;;;7.03;5.35;;;;;;;2.23;58.18;97050.47;4959641;28;20092;-77
2023/02/22 06:36:30;;;;;;;15.63;5.88;;;;;;;2.31;57.41;97050.69;4959945;28;20042;-79
2023/02/22 06:38:56;;;;;;;10.98;5.65;;;;;;;2.15;57.42;97046.69;4995275;28;20548;-79
2023/02/22 06:41:23;;;;;;;7.40;5.28;;;;;;;2.28;57.23;97041.22;4977232;28;20049;-78
2023/02/22 06:43:49;;;;;;;8.27;5.07;;;;;;;2.24;57.31;97042.44;4986299;28;20501;-78
2023/02/22 06:46:18;;;;;;;8.70;5.05;;;;;;;2.48;57.19;97034.25;4985956;28;20088;-78
2023/02/22 06:48:44;;;;;;;7.50;4.80;;;;;;;2.66;57.05;97038.00;4960449;28;20042;-79
2023/02/22 06:51:12;;;;;;;7.95;4.63;;;;;;;2.68;56.41;97035.25;4993485;28;20515;-77
2023/02/22 06:53:38;;;;;;;6.90;4.80;;;;;;;2.67;56.09;97034.41;4987617;28;20427;-78
2023/02/22 06:56:04;;;;;;;5.57;4.07;;;;;;;2.75;55.71;97028.47;4972978;28;20097;-77
2023/02/22 06:58:30;;;;;;;5.90;4.68;;;;;;;2.72;55.79;97025.25;4974056;28;20498;-79
2023/02/22 07:00:56;;;;;;;5.28;4.00;;;;;;;2.61;55.14;97032.28;4956674;28;20054;-78
2023/02/22 07:03:22;;;;;;;6.78;4.25;;;;;;;2.23;56.03;97029.41;4972939;28;20487;-80
2023/02/22 07:05:48;;;;;;;5.15;4.20;;;;;;;2.42;56.63;97018.97;4972713;28;20043;-78
2023/02/22 07:08:13;;;;;;;5.32;3.90;;;;;;;2.56;56.52;97020.47;4974102;28;20053;-78
2023/02/22 07:10:39;;;;;;;5.30;4.00;;;;;;;2.63;56.45;97011.91;4961535;28;20047;-78
2023/02/22 07:13:07;;;;;;;16.20;4.70;;;;;;;2.75;55.92;97014.47;4958907;28;20042;-78
2023/02/22 07:15:34;;;;;;;7.22;3.72;;;;;;;2.90;55.81;97007.88;4974388;28;20101;-78
2023/02/22 07:18:00;;;;;;;6.15;3.42;;;;;;;2.77;55.67;97009.88;4974162;28;20042;-77
2023/02/22 07:20:28;;;;;;;10.90;4.53;;;;;;;2.68;55.49;96995.69;4972697;28;20038;-77
2023/02/22 07:22:54;;;;;;;71.97;32.85;;;;;;;2.95;56.54;96997.72;4973028;28;20439;-78
2023/02/22 07:25:22;;;;;;;8.23;4.50;;;;;;;3.37;55.78;96994.94;4974372;28;20446;-76
2023/02/22 07:27:48;;;;;;;4.68;3.45;;;;;;;3.78;54.79;96985.16;4972998;28;20512;-77
2023/02/22 07:30:15;;;;;;;3.97;3.47;;;;;;;4.21;53.94;96984.69;4972891;28;20117;-78
2023/02/22 07:32:42;;;;;;;5.93;3.70;;;;;;;4.41;53.03;96964.38;4972746;28;20061;-78
2023/02/22 07:35:15;;;;;;;4.75;3.50;;;;;;;4.45;52.55;96972.84;4972706;28;20043;-77
2023/02/22 07:37:42;;;;;;;4.70;3.60;;;;;;;4.57;52.38;96975.19;4972845;28;20058;-79
2023/02/22 07:40:09;;;;;;;5.10;3.55;;;;;;;4.85;51.67;96968.13;4973878;28;20564;-78
2023/02/22 07:42:59;;;;;;;3.83;3.20;;;;;;;4.79;50.09;96962.59;4972510;28;20422;-79
2023/02/22 07:45:33;;;;;;;6.03;3.40;;;;;;;4.72;51.20;96950.91;4940537;28;20533;-78
2023/02/22 07:48:01;;;;;;;5.47;3.50;;;;;;;4.72;50.38;96950.91;4956442;28;20053;-77
2023/02/22 07:50:31;;;;;;;4.22;3.22;;;;;;;4.94;51.34;96934.66;4956329;28;20440;-79
2023/02/22 07:53:01;;;;;;;8.73;3.65;;;;;;;5.02;49.66;96942.69;4974785;28;20050;-78
2023/02/22 07:55:29;;;;;;;4.82;3.60;;;;;;;4.95;49.39;96938.13;4977489;28;20074;-78
2023/02/22 07:58:02;;;;;;;5.28;3.47;;;;;;;4.99;48.84;96937.69;4975921;28;20101;-77
2023/02/22 08:00:33;;;;;;;7.70;3.65;;;;;;;5.19;48.14;96941.09;4976651;28;20062;-78
2023/02/22 08:03:01;;;;;;;6.78;3.63;;;;;;;5.30;48.94;96932.94;4977283;28;20051;-78
2023/02/22 08:05:28;;;;;;;6.50;3.00;;;;;;;5.26;47.65;96922.75;4976060;28;20544;-77
2023/02/22 08:07:55;;;;;;;3.72;3.05;;;;;;;5.38;48.38;96926.91;4959693;28;20047;-77
2023/02/22 08:10:23;;;;;;;9.48;4.38;;;;;;;5.51;47.70;96907.97;4975802;28;20050;-76
2023/02/22 08:12:49;;;;;;;3.72;2.97;;;;;;;5.35;47.47;96920.06;4977323;28;20047;-77
2023/02/22 08:15:28;;;;;;;4.03;3.35;;;;;;;5.29;47.87;96896.00;4959816;28;20133;-79
2023/02/22 08:17:54;;;;;;;3.00;2.60;;;;;;;5.36;47.45;96897.06;4960014;28;20038;-78
2023/02/22 08:20:21;;;;;;;5.20;2.78;;;;;;;5.20;47.80;96886.31;4976538;28;20058;-77
2023/02/22 08:22:47;;;;;;;3.60;2.97;;;;;;;5.01;48.51;96888.09;4960249;28;20097;-79
2023/02/22 08:25:15;;;;;;;4.88;3.38;;;;;;;5.18;48.34;96882.97;4975281;28;20070;-76
2023/02/22 08:27:42;;;;;;;4.63;2.83;;;;;;;4.91;48.30;96887.28;4975567;28;20053;-78
2023/02/22 08:30:19;;;;;;;3.35;2.95;;;;;;;5.09;48.42;96885.53;4976795;28;20486;-79
2023/02/22 08:32:46;;;;;;;4.18;3.03;;;;;;;5.30;47.93;96876.44;4975661;28;20066;-77
2023/02/22 08:35:13;;;;;;;3.40;2.97;;;;;;;5.25;48.12;96878.72;4975708;28;20047;-78
2023/02/22 08:37:49;;;;;;;6.95;3.38;;;;;;;5.45;48.52;96874.94;4975042;28;20047;-81
2023/02/22 08:40:17;;;;;;;3.78;3.30;;;;;;;5.75;48.70;96862.28;4975356;28;20573;-77
2023/02/22 08:42:43;;;;;;;5.22;3.38;;;;;;;5.92;47.71;96868.56;4976708;28;20050;-77
2023/02/22 08:45:12;;;;;;;6.22;3.20;;;;;;;5.83;47.20;96860.56;4975004;28;20138;-80
2023/02/22 08:47:38;;;;;;;4.38;2.40;;;;;;;5.68;47.38;96848.84;4958962;28;20046;-77
2023/02/22 08:50:05;;;;;;;3.95;3.13;;;;;;;5.03;48.45;96853.50;4976106;28;20046;-79
2023/02/22 08:52:31;;;;;;;14.63;3.85;;;;;;;4.92;48.95;96841.31;4958854;28;20093;-77
2023/02/22 08:54:57;;;;;;;12.98;3.40;;;;;;;4.74;49.32;96849.22;4974854;28;20038;-77
2023/02/22 08:57:23;;;;;;;5.85;3.33;;;;;;;4.65;50.18;96849.28;4974761;28;20046;-78
2023/02/22 08:59:49;;;;;;;7.93;3.60;;;;;;;4.66;50.41;96837.69;4974881;28;20067;-78
2023/02/22 09:02:20;;;;;;;5.15;3.35;;;;;;;4.70;50.37;96842.56;4974935;28;20562;-78
2023/02/22 09:04:47;;;;;;;8.00;3.30;;;;;;;4.74;50.40;96837.78;4973850;28;20129;-78
2023/02/22 09:07:14;;;;;;;4.22;3.22;;;;;;;4.49;50.87;96826.94;4958521;28;20050;-77
2023/02/22 09:09:43;;;;;;;5.35;3.33;;;;;;;4.18;51.36;96829.00;4958621;28;20049;-78
2023/02/22 09:12:09;;;;;;;;;;;;;;;4.01;51.72;96835.03;4974469;28;20138;-77
2023/02/22 09:14:35;;;;;;;6.93;3.80;;;;;;;4.03;52.21;96820.72;4975231;28;20005;-78
2023/02/22 09:17:01;;;;;;;12.50;3.63;;;;;;;4.03;51.89;96823.34;4974446;28;20054;-78
2023/02/22 09:19:28;;;;;;;9.15;3.58;;;;;;;3.68;52.32;96788.78;4974058;28;20141;-77
2023/02/22 09:21:55;;;;;;;10.68;3.78;;;;;;;3.58;53.24;96808.16;4975434;28;20046;-78
2023/02/22 09:24:22;;;;;;;8.73;4.07;;;;;;;3.54;53.92;96800.66;4974045;28;20051;-81
2023/02/22 09:26:52;;;;;;;4.93;3.50;;;;;;;3.54;54.10;96798.84;4973891;28;20100;-81
2023/02/22 09:29:21;;;;;;;7.45;3.90;;;;;;;3.64;54.02;96791.72;4974612;28;20596;-77
2023/02/22 09:31:48;;;;;;;6.20;3.38;;;;;;;3.61;54.48;96786.75;4973703;28;20081;-79
2023/02/22 09:34:15;;;;;;;6.05;3.42;;;;;;;3.49;54.19;96782.56;4977491;28;20042;-79
2023/02/22 09:36:45;;;;;;;4.95;3.53;;;;;;;3.44;54.35;96784.81;4966085;28;20051;-80
2023/02/22 09:39:11;;;;;;;7.38;3.50;;;;;;;3.59;54.57;96767.53;4975094;28;20042;-80
2023/02/22 09:41:37;;;;;;;10.88;4.13;;;;;;;3.68;54.75;96780.88;4957600;28;20514;-80
2023/02/22 09:44:19;;;;;;;5.25;3.58;;;;;;;3.69;54.99;96766.72;4973009;28;20180;-79
2023/02/22 09:46:47;;;;;;;5.38;3.80;;;;;;;3.57;55.05;96766.00;4957532;28;20050;-79
2023/02/22 09:49:23;;;;;;;6.38;3.90;;;;;;;3.49;55.40;96756.16;4973583;28;20503;-78
2023/02/22 09:52:17;;;;;;;4.57;4.00;;;;;;;3.49;55.17;96765.91;4974769;28;20047;-78
2023/02/22 09:54:52;;;;;;;4.20;3.47;;;;;;;3.61;55.96;96752.41;4983152;28;20051;-78
2023/02/22 09:57:34;;;;;;;4.07;3.30;;;;;;;3.78;55.62;96755.25;4976855;28;20034;-78
2023/02/22 10:00:12;;;;;;;8.07;4.00;;;;;;;3.96;55.58;96742.13;4990227;28;20387;-77
2023/02/22 10:02:51;;;;;;;66.90;11.43;;;;;;;3.88;55.05;96745.50;4973494;28;20034;-79
2023/02/22 10:05:19;;;;;;;;;;;;;;;3.56;55.46;96730.84;4991310;28;20042;-78
2023/02/22 10:07:59;;;;;;;7.70;3.42;;;;;;;3.16;56.57;96729.28;4984107;28;19926;-79
2023/02/22 10:10:32;;;;;;;7.88;3.80;;;;;;;3.09;57.14;96722.88;4972063;28;20046;-77
2023/02/22 10:13:12;;;;;;;4.10;3.50;;;;;;;3.42;56.43;96728.66;4976107;28;20129;-78
2023/02/22 10:15:46;;;;;;;5.15;3.53;;;;;;;3.45;56.16;96728.38;4992589;28;20046;-79
2023/02/22 10:18:42;;;;;;;4.00;3.40;;;;;;;3.26;55.72;96726.59;4976324;28;20054;-77
2023/02/22 10:21:39;;;;;;;3.63;3.15;;;;;;;3.53;55.86;96725.00;4976223;28;20046;-79
2023/02/22 10:24:29;;;;;;;4.18;3.47;;;;;;;3.52;55.39;96718.06;4976613;28;20060;-77
2023/02/22 10:26:57;;;;;;;4.00;2.92;;;;;;;3.39;55.79;96713.13;4975742;28;20046;-78
2023/02/22 10:29:40;;;;;;;4.10;3.28;;;;;;;3.49;56.04;96702.50;4976385;28;20042;-77
2023/02/22 10:32:13;;;;;;;5.18;4.25;;;;;;;3.60;55.73;96705.81;4948171;28;20057;-78
2023/02/22 10:34:47;;;;;;;5.18;3.83;;;;;;;3.28;56.18;96705.34;4944767;28;20042;-78
2023/02/22 10:37:27;;;;;;;5.47;3.40;;;;;;;3.05;57.09;96705.66;4976862;28;20057;-77
2023/02/22 10:40:05;;;;;;;8.20;4.22;;;;;;;3.10;57.58;96692.88;4976732;28;20042;-79
2023/02/22 10:42:31;;;;;;;5.70;4.07;;;;;;;3.27;57.25;96690.47;4954328;28;20053;-78
2023/02/22 10:44:57;;;;;;;5.65;4.10;;;;;;;3.34;56.74;96699.50;4986937;28;20490;-78
2023/02/22 10:47:23;;;;;;;6.07;3.90;;;;;;;3.48;57.39;96695.56;4993260;28;20049;-77
2023/02/22 10:49:54;;;;;;;20.95;5.93;;;;;;;3.43;57.19;96680.16;4995914;28;20053;-77
2023/02/22 10:52:27;;;;;;;4.95;4.10;;;;;;;3.62;56.93;96693.31;4961372;28;20042;-78
2023/02/22 10:54:56;;;;;;;4.45;4.00;;;;;;;3.63;56.86;96694.97;4991669;28;20520;-77
2023/02/22 10:57:25;;;;;;;5.03;3.88;;;;;;;3.60;57.04;96691.78;4974837;28;20030;-77
2023/02/22 10:59:55;;;;;;;6.50;4.53;;;;;;;3.58;57.49;96681.38;4974435;28;20078;-78
2023/02/22 11:02:34;;;;;;;11.32;4.57;;;;;;;3.58;57.20;96680.53;4972180;28;20046;-77
2023/02/22 11:05:03;;;;;;;6.13;4.20;;;;;;;3.45;57.66;96675.56;4986563;28;20070;-79
2023/02/22 11:07:31;;;;;;;5.25;4.20;;;;;;;3.54;57.57;96680.00;4988879;28;20294;-79
2023/02/22 11:10:00;;;;;;;5.28;4.28;;;;;;;3.47;57.34;96668.34;4980652;28;20046;-78
2023/02/22 11:12:38;;;;;;;7.57;4.88;;;;;;;3.20;57.54;96658.56;4974807;28;20089;-77
2023/02/22 11:15:16;;;;;;;21.00;4.93;;;;;;;2.82;58.94;96667.34;4988272;28;20042;-79
2023/02/22 11:17:43;;;;;;;7.50;4.32;;;;;;;2.56;59.71;96665.28;4975108;28;20060;-77
2023/02/22 11:20:24;;;;;;;9.65;6.15;;;;;;;2.54;60.50;96658.47;4958404;28;20065;-79
2023/02/22 11:23:01;;;;;;;6.18;5.18;;;;;;;2.67;59.94;96659.88;4990982;28;20053;-78
2023/02/22 11:25:36;;;;;;;6.10;5.20;;;;;;;2.52;59.88;96665.69;4966941;28;20041;-78
2023/02/22 11:28:29;;;;;;;8.18;4.57;;;;;;;2.72;60.08;96661.25;4968288;28;20041;-78
2023/02/22 11:30:58;;;;;;;6.85;5.03;;;;;;;2.88;60.06;96653.59;4994045;28;20180;-79
2023/02/22 11:33:28;;;;;;;5.90;4.73;;;;;;;3.10;59.61;96660.38;4996240;28;20497;-78
2023/02/22 11:35:58;;;;;;;8.30;5.18;;;;;;;3.17;58.69;96651.75;4996992;28;20038;-80
2023/02/22 11:38:29;;;;;;;6.88;4.35;;;;;;;2.84;59.45;96652.22;4970698;28;20124;-79
2023/02/22 11:41:23;;;;;;;11.50;4.47;;;;;;;2.73;60.04;96650.56;4995478;28;20046;-78
2023/02/22 11:43:50;;;;;;;16.05;4.90;;;;;;;2.77;59.68;96648.47;4975964;28;20057;-78
2023/02/22 11:46:24;;;;;;;9.95;4.95;;;;;;;2.51;60.22;96656.09;4976716;28;20096;-78
2023/02/22 11:48:58;;;;;;;11.32;5.22;;;;;;;2.63;60.13;96647.09;4993619;28;20042;-77
2023/02/22 11:51:54;;;;;;;9.73;5.25;;;;;;;2.40;60.16;96651.78;4992484;28;20132;-77